sensor_id;sensor_type;location;lat;lon;timestamp;P1;durP1;ratioP1;P2;durP2;ratioP2
1533;SDS011;760;48.822;9.304;2023-03-31T05:05:06;2.83;;;2.20;;
1533;SDS011;760;48.822;9.304;2023-03-31T05:07:32;4.27;;;2.27;;
1533;SDS011;760;48.822;9.304;2023-03-31T05:09:58;2.93;;;2.17;;
1533;SDS011;760;48.822;9.304;2023-03-31T05:12:23;3.37;;;1.80;;
1533;SDS011;760;48.822;9.304;2023-03-31T05:14:49;2.97;;;2.78;;
1533;SDS011;760;48.822;9.304;2023-03-31T05:17:15;2.43;;;2.13;;
1533;SDS011;760;48.822;9.304;2023-03-31T05:19:41;2.83;;;2.63;;
1533;SDS011;760;48.822;9.304;2023-03-31T05:22:07;3.70;;;2.23;;
1533;SDS011;760;48.822;9.304;2023-03-31T05:24:33;2.27;;;2.07;;
1533;SDS011;760;48.822;9.304;2023-03-31T05:26:59;4.47;;;2.10;;
1533;SDS011;760;48.822;9.304;2023-03-31T05:29:24;2.33;;;2.23;;
1533;SDS011;760;48.822;9.304;2023-03-31T05:31:50;2.25;;;2.05;;
1533;SDS011;760;48.822;9.304;2023-03-31T05:34:17;2.80;;;2.50;;
1533;SDS011;760;48.822;9.304;2023-03-31T05:36:44;3.25;;;2.22;;
1533;SDS011;760;48.822;9.304;2023-03-31T05:39:12;5.95;;;2.42;;
1533;SDS011;760;48.822;9.304;2023-03-31T05:41:38;2.25;;;2.15;;
1533;SDS011;760;48.822;9.304;2023-03-31T05:44:04;2.40;;;2.20;;
1533;SDS011;760;48.822;9.304;2023-03-31T05:46:29;3.03;;;2.60;;
1533;SDS011;760;48.822;9.304;2023-03-31T05:48:55;2.20;;;2.00;;
1533;SDS011;760;48.822;9.304;2023-03-31T05:51:21;2.67;;;2.23;;
1533;SDS011;760;48.822;9.304;2023-03-31T05:53:47;3.72;;;2.90;;
1533;SDS011;760;48.822;9.304;2023-03-31T05:56:12;3.80;;;3.50;;
1533;SDS011;760;48.822;9.304;2023-03-31T05:58:38;1.93;;;1.83;;
1533;SDS011;760;48.822;9.304;2023-03-31T06:01:05;3.10;;;2.77;;
1533;SDS011;760;48.822;9.304;2023-03-31T06:03:34;2.25;;;1.90;;
1533;SDS011;760;48.822;9.304;2023-03-31T06:06:01;2.95;;;2.15;;
1533;SDS011;760;48.822;9.304;2023-03-31T06:08:29;3.00;;;2.42;;
1533;SDS011;760;48.822;9.304;2023-03-31T06:10:55;3.05;;;2.75;;
1533;SDS011;760;48.822;9.304;2023-03-31T06:13:20;4.60;;;3.33;;
1533;SDS011;760;48.822;9.304;2023-03-31T06:15:56;3.47;;;3.05;;
1533;SDS011;760;48.822;9.304;2023-03-31T06:18:23;4.80;;;3.10;;
1533;SDS011;760;48.822;9.304;2023-03-31T06:20:50;3.28;;;3.08;;
1533;SDS011;760;48.822;9.304;2023-03-31T06:23:16;2.97;;;2.67;;
1533;SDS011;760;48.822;9.304;2023-03-31T06:25:42;2.53;;;2.43;;
1533;SDS011;760;48.822;9.304;2023-03-31T06:28:07;6.60;;;3.27;;
1533;SDS011;760;48.822;9.304;2023-03-31T06:30:33;4.70;;;3.77;;
1533;SDS011;760;48.822;9.304;2023-03-31T06:32:59;2.92;;;2.63;;
1533;SDS011;760;48.822;9.304;2023-03-31T06:35:25;4.00;;;2.77;;
1533;SDS011;760;48.822;9.304;2023-03-31T06:37:51;3.00;;;2.80;;
1533;SDS011;760;48.822;9.304;2023-03-31T06:40:16;4.53;;;2.50;;
1533;SDS011;760;48.822;9.304;2023-03-31T06:42:42;4.17;;;3.63;;
1533;SDS011;760;48.822;9.304;2023-03-31T06:45:08;5.27;;;3.30;;
1533;SDS011;760;48.822;9.304;2023-03-31T06:47:34;3.27;;;2.87;;
1533;SDS011;760;48.822;9.304;2023-03-31T06:50:01;2.92;;;2.72;;
1533;SDS011;760;48.822;9.304;2023-03-31T06:52:27;3.40;;;3.10;;
1533;SDS011;760;48.822;9.304;2023-03-31T06:54:53;3.30;;;3.00;;
1533;SDS011;760;48.822;9.304;2023-03-31T06:57:19;3.67;;;2.50;;
1533;SDS011;760;48.822;9.304;2023-03-31T06:59:45;3.57;;;3.37;;
1533;SDS011;760;48.822;9.304;2023-03-31T07:02:10;5.03;;;3.40;;
1533;SDS011;760;48.822;9.304;2023-03-31T07:04:36;3.30;;;3.00;;
1533;SDS011;760;48.822;9.304;2023-03-31T07:07:01;4.90;;;2.80;;
1533;SDS011;760;48.822;9.304;2023-03-31T07:09:27;3.40;;;2.73;;
1533;SDS011;760;48.822;9.304;2023-03-31T07:11:53;4.57;;;3.03;;
1533;SDS011;760;48.822;9.304;2023-03-31T07:14:18;3.57;;;3.27;;
1533;SDS011;760;48.822;9.304;2023-03-31T07:16:44;5.73;;;3.27;;
1533;SDS011;760;48.822;9.304;2023-03-31T07:19:09;4.13;;;3.63;;
1533;SDS011;760;48.822;9.304;2023-03-31T07:21:38;5.23;;;3.13;;
1533;SDS011;760;48.822;9.304;2023-03-31T07:24:03;3.67;;;3.35;;
1533;SDS011;760;48.822;9.304;2023-03-31T07:26:29;3.30;;;3.10;;
1533;SDS011;760;48.822;9.304;2023-03-31T07:28:55;3.23;;;2.97;;
1533;SDS011;760;48.822;9.304;2023-03-31T07:31:21;3.40;;;2.38;;
1533;SDS011;760;48.822;9.304;2023-03-31T07:33:47;1.87;;;1.73;;
1533;SDS011;760;48.822;9.304;2023-03-31T07:36:12;1.90;;;1.80;;
1533;SDS011;760;48.822;9.304;2023-03-31T07:38:38;2.63;;;2.30;;
1533;SDS011;760;48.822;9.304;2023-03-31T07:41:05;2.00;;;1.90;;
1533;SDS011;760;48.822;9.304;2023-03-31T07:43:33;1.73;;;1.63;;
1533;SDS011;760;48.822;9.304;2023-03-31T07:45:59;2.80;;;2.60;;
1533;SDS011;760;48.822;9.304;2023-03-31T07:48:25;7.13;;;4.70;;
1533;SDS011;760;48.822;9.304;2023-03-31T07:50:52;1.85;;;1.75;;
1533;SDS011;760;48.822;9.304;2023-03-31T07:53:18;2.20;;;2.00;;
1533;SDS011;760;48.822;9.304;2023-03-31T07:55:45;8.07;;;2.57;;
1533;SDS011;760;48.822;9.304;2023-03-31T07:58:11;1.50;;;1.40;;
1533;SDS011;760;48.822;9.304;2023-03-31T08:00:37;1.73;;;1.63;;
1533;SDS011;760;48.822;9.304;2023-03-31T08:03:03;1.63;;;1.53;;
1533;SDS011;760;48.822;9.304;2023-03-31T08:05:28;0.93;;;0.93;;
1533;SDS011;760;48.822;9.304;2023-03-31T08:07:54;2.53;;;2.33;;
1533;SDS011;760;48.822;9.304;2023-03-31T08:10:21;2.13;;;1.40;;
1533;SDS011;760;48.822;9.304;2023-03-31T08:12:49;1.40;;;1.00;;
1533;SDS011;760;48.822;9.304;2023-03-31T08:15:14;2.20;;;1.33;;
1533;SDS011;760;48.822;9.304;2023-03-31T08:17:40;1.23;;;1.10;;
1533;SDS011;760;48.822;9.304;2023-03-31T08:20:06;1.10;;;1.10;;
1533;SDS011;760;48.822;9.304;2023-03-31T08:22:34;1.77;;;1.13;;
1533;SDS011;760;48.822;9.304;2023-03-31T08:25:00;1.43;;;1.33;;
1533;SDS011;760;48.822;9.304;2023-03-31T08:27:26;0.97;;;0.97;;
1533;SDS011;760;48.822;9.304;2023-03-31T08:29:52;0.90;;;0.90;;
1533;SDS011;760;48.822;9.304;2023-03-31T08:32:20;1.30;;;1.20;;
1533;SDS011;760;48.822;9.304;2023-03-31T08:34:47;0.83;;;0.83;;
1533;SDS011;760;48.822;9.304;2023-03-31T08:37:13;0.70;;;0.70;;
1533;SDS011;760;48.822;9.304;2023-03-31T08:39:38;0.60;;;0.60;;
1533;SDS011;760;48.822;9.304;2023-03-31T08:42:12;0.80;;;0.80;;
1533;SDS011;760;48.822;9.304;2023-03-31T08:44:46;1.00;;;1.00;;
1533;SDS011;760;48.822;9.304;2023-03-31T08:47:31;1.27;;;1.17;;
1533;SDS011;760;48.822;9.304;2023-03-31T08:50:01;2.30;;;1.00;;
1533;SDS011;760;48.822;9.304;2023-03-31T08:52:37;0.90;;;0.90;;
1533;SDS011;760;48.822;9.304;2023-03-31T08:55:12;1.47;;;1.37;;
1533;SDS011;760;48.822;9.304;2023-03-31T09:00:45;1.13;;;1.13;;
1533;SDS011;760;48.822;9.304;2023-03-31T09:03:22;1.03;;;0.70;;
1533;SDS011;760;48.822;9.304;2023-03-31T09:05:59;1.33;;;1.00;;
1533;SDS011;760;48.822;9.304;2023-03-31T09:08:38;1.10;;;1.00;;
1533;SDS011;760;48.822;9.304;2023-03-31T09:14:00;0.90;;;0.90;;
1533;SDS011;760;48.822;9.304;2023-03-31T09:19:17;2.10;;;1.90;;
1533;SDS011;760;48.822;9.304;2023-03-31T09:21:51;0.80;;;0.80;;
1533;SDS011;760;48.822;9.304;2023-03-31T09:24:21;1.50;;;1.00;;
1533;SDS011;760;48.822;9.304;2023-03-31T09:26:54;0.53;;;0.53;;
1533;SDS011;760;48.822;9.304;2023-03-31T09:29:45;1.60;;;0.90;;
1533;SDS011;760;48.822;9.304;2023-03-31T09:32:39;0.70;;;0.70;;
1533;SDS011;760;48.822;9.304;2023-03-31T09:35:20;0.93;;;0.90;;
1533;SDS011;760;48.822;9.304;2023-03-31T09:37:49;1.93;;;0.70;;
1533;SDS011;760;48.822;9.304;2023-03-31T09:40:25;1.13;;;0.60;;
1533;SDS011;760;48.822;9.304;2023-03-31T09:42:59;1.77;;;1.30;;
1533;SDS011;760;48.822;9.304;2023-03-31T09:45:30;0.73;;;0.73;;
1533;SDS011;760;48.822;9.304;2023-03-31T09:48:01;0.70;;;0.60;;
1533;SDS011;760;48.822;9.304;2023-03-31T09:50:31;2.77;;;0.70;;
1533;SDS011;760;48.822;9.304;2023-03-31T09:53:04;1.53;;;0.87;;
1533;SDS011;760;48.822;9.304;2023-03-31T09:58:10;0.93;;;0.90;;
1533;SDS011;760;48.822;9.304;2023-03-31T10:00:39;7.27;;;1.00;;
1533;SDS011;760;48.822;9.304;2023-03-31T10:03:06;1.50;;;0.90;;
1533;SDS011;760;48.822;9.304;2023-03-31T10:05:36;2.03;;;0.97;;
1533;SDS011;760;48.822;9.304;2023-03-31T10:08:28;1.00;;;1.00;;
1533;SDS011;760;48.822;9.304;2023-03-31T10:10:56;0.83;;;0.83;;
1533;SDS011;760;48.822;9.304;2023-03-31T10:13:26;1.23;;;0.70;;
1533;SDS011;760;48.822;9.304;2023-03-31T10:16:03;1.50;;;0.80;;
1533;SDS011;760;48.822;9.304;2023-03-31T10:18:39;2.80;;;1.00;;
1533;SDS011;760;48.822;9.304;2023-03-31T10:21:14;1.17;;;0.63;;
1533;SDS011;760;48.822;9.304;2023-03-31T10:23:47;1.37;;;0.83;;
1533;SDS011;760;48.822;9.304;2023-03-31T10:26:24;1.53;;;0.60;;
1533;SDS011;760;48.822;9.304;2023-03-31T10:28:51;2.20;;;1.10;;
1533;SDS011;760;48.822;9.304;2023-03-31T10:31:19;3.33;;;1.00;;
1533;SDS011;760;48.822;9.304;2023-03-31T10:33:49;0.90;;;0.90;;
1533;SDS011;760;48.822;9.304;2023-03-31T10:38:53;1.90;;;1.40;;
1533;SDS011;760;48.822;9.304;2023-03-31T10:41:20;1.00;;;0.87;;
1533;SDS011;760;48.822;9.304;2023-03-31T10:43:52;1.33;;;0.97;;
1533;SDS011;760;48.822;9.304;2023-03-31T10:46:19;1.17;;;0.70;;
1533;SDS011;760;48.822;9.304;2023-03-31T10:48:45;1.27;;;1.17;;
1533;SDS011;760;48.822;9.304;2023-03-31T10:51:18;0.80;;;0.70;;
1533;SDS011;760;48.822;9.304;2023-03-31T10:53:50;1.93;;;0.90;;
1533;SDS011;760;48.822;9.304;2023-03-31T10:56:34;1.53;;;0.60;;
1533;SDS011;760;48.822;9.304;2023-03-31T11:04:51;1.50;;;0.80;;
1533;SDS011;760;48.822;9.304;2023-03-31T11:10:20;0.60;;;0.60;;
1533;SDS011;760;48.822;9.304;2023-03-31T11:13:06;1.40;;;1.03;;
1533;SDS011;760;48.822;9.304;2023-03-31T11:26:54;1.60;;;0.70;;
1533;SDS011;760;48.822;9.304;2023-03-31T11:37:35;0.50;;;0.40;;
1533;SDS011;760;48.822;9.304;2023-03-31T11:45:43;0.50;;;0.50;;
1533;SDS011;760;48.822;9.304;2023-03-31T11:48:18;0.60;;;0.60;;
1533;SDS011;760;48.822;9.304;2023-03-31T11:50:53;1.03;;;0.40;;
1533;SDS011;760;48.822;9.304;2023-03-31T11:53:26;1.25;;;0.70;;
1533;SDS011;760;48.822;9.304;2023-03-31T11:56:00;8.30;;;1.03;;
1533;SDS011;760;48.822;9.304;2023-03-31T12:01:08;0.93;;;0.93;;
1533;SDS011;760;48.822;9.304;2023-03-31T12:03:52;0.80;;;0.80;;
1533;SDS011;760;48.822;9.304;2023-03-31T12:06:31;0.40;;;0.40;;
1533;SDS011;760;48.822;9.304;2023-03-31T12:09:10;1.23;;;0.70;;
1533;SDS011;760;48.822;9.304;2023-03-31T12:11:48;0.70;;;0.70;;
1533;SDS011;760;48.822;9.304;2023-03-31T12:17:09;0.60;;;0.60;;
1533;SDS011;760;48.822;9.304;2023-03-31T12:25:04;1.53;;;0.80;;
1533;SDS011;760;48.822;9.304;2023-03-31T12:27:37;1.00;;;1.00;;
1533;SDS011;760;48.822;9.304;2023-03-31T12:30:08;0.60;;;0.50;;
1533;SDS011;760;48.822;9.304;2023-03-31T12:32:36;0.87;;;0.50;;
1533;SDS011;760;48.822;9.304;2023-03-31T12:38:02;0.73;;;0.73;;
1533;SDS011;760;48.822;9.304;2023-03-31T12:41:00;0.67;;;0.67;;
1533;SDS011;760;48.822;9.304;2023-03-31T12:51:47;0.40;;;0.40;;
1533;SDS011;760;48.822;9.304;2023-03-31T12:57:57;0.70;;;0.70;;
1533;SDS011;760;48.822;9.304;2023-03-31T13:06:00;0.60;;;0.40;;
1533;SDS011;760;48.822;9.304;2023-03-31T13:11:15;1.33;;;1.07;;
1533;SDS011;760;48.822;9.304;2023-03-31T13:13:58;0.83;;;0.73;;
1533;SDS011;760;48.822;9.304;2023-03-31T13:16:26;2.40;;;0.60;;
1533;SDS011;760;48.822;9.304;2023-03-31T13:18:53;0.50;;;0.50;;
1533;SDS011;760;48.822;9.304;2023-03-31T13:21:20;1.60;;;0.90;;
1533;SDS011;760;48.822;9.304;2023-03-31T13:23:47;1.43;;;0.60;;
1533;SDS011;760;48.822;9.304;2023-03-31T13:29:10;0.50;;;0.50;;
1533;SDS011;760;48.822;9.304;2023-03-31T13:34:26;0.70;;;0.70;;
1533;SDS011;760;48.822;9.304;2023-03-31T13:43:28;0.60;;;0.47;;
1533;SDS011;760;48.822;9.304;2023-03-31T13:56:47;0.33;;;0.30;;
1533;SDS011;760;48.822;9.304;2023-03-31T13:59:59;0.57;;;0.57;;
1533;SDS011;760;48.822;9.304;2023-03-31T14:09:55;0.60;;;0.40;;
1533;SDS011;760;48.822;9.304;2023-03-31T14:12:36;0.40;;;0.40;;
1533;SDS011;760;48.822;9.304;2023-03-31T14:15:03;0.43;;;0.43;;
1533;SDS011;760;48.822;9.304;2023-03-31T14:17:36;0.40;;;0.40;;
1533;SDS011;760;48.822;9.304;2023-03-31T14:26:06;0.63;;;0.50;;
1533;SDS011;760;48.822;9.304;2023-03-31T14:37:01;0.80;;;0.40;;
1533;SDS011;760;48.822;9.304;2023-03-31T14:39:30;1.00;;;0.60;;
1533;SDS011;760;48.822;9.304;2023-03-31T14:42:00;0.70;;;0.70;;
1533;SDS011;760;48.822;9.304;2023-03-31T14:44:29;1.10;;;0.50;;
1533;SDS011;760;48.822;9.304;2023-03-31T14:46:57;0.50;;;0.50;;
1533;SDS011;760;48.822;9.304;2023-03-31T14:49:26;0.50;;;0.50;;
1533;SDS011;760;48.822;9.304;2023-03-31T14:52:14;0.43;;;0.33;;
1533;SDS011;760;48.822;9.304;2023-03-31T14:54:45;0.30;;;0.30;;
1533;SDS011;760;48.822;9.304;2023-03-31T14:57:12;1.43;;;0.30;;
1533;SDS011;760;48.822;9.304;2023-03-31T14:59:41;1.13;;;0.50;;
1533;SDS011;760;48.822;9.304;2023-03-31T15:02:11;1.37;;;0.77;;
1533;SDS011;760;48.822;9.304;2023-03-31T15:04:41;0.80;;;0.70;;
1533;SDS011;760;48.822;9.304;2023-03-31T15:07:10;1.73;;;0.63;;
1533;SDS011;760;48.822;9.304;2023-03-31T15:09:37;0.67;;;0.67;;
1533;SDS011;760;48.822;9.304;2023-03-31T15:12:06;2.67;;;0.90;;
1533;SDS011;760;48.822;9.304;2023-03-31T15:14:39;0.80;;;0.80;;
1533;SDS011;760;48.822;9.304;2023-03-31T15:17:29;0.83;;;0.70;;
1533;SDS011;760;48.822;9.304;2023-03-31T15:20:00;0.70;;;0.53;;
1533;SDS011;760;48.822;9.304;2023-03-31T15:22:44;1.83;;;0.40;;
1533;SDS011;760;48.822;9.304;2023-03-31T15:25:13;1.13;;;0.40;;
1533;SDS011;760;48.822;9.304;2023-03-31T15:28:03;0.43;;;0.43;;
1533;SDS011;760;48.822;9.304;2023-03-31T15:30:30;0.60;;;0.40;;
1533;SDS011;760;48.822;9.304;2023-03-31T15:32:56;1.40;;;0.50;;
1533;SDS011;760;48.822;9.304;2023-03-31T15:35:33;1.07;;;0.60;;
1533;SDS011;760;48.822;9.304;2023-03-31T15:38:01;1.30;;;0.70;;
1533;SDS011;760;48.822;9.304;2023-03-31T15:40:35;1.80;;;0.70;;
1533;SDS011;760;48.822;9.304;2023-03-31T15:43:08;1.03;;;0.67;;
1533;SDS011;760;48.822;9.304;2023-03-31T15:46:15;0.50;;;0.50;;
1533;SDS011;760;48.822;9.304;2023-03-31T15:48:34;0.60;;;0.60;;
1533;SDS011;760;48.822;9.304;2023-03-31T15:53:48;0.80;;;0.60;;
1533;SDS011;760;48.822;9.304;2023-03-31T15:59:21;1.13;;;0.70;;
1533;SDS011;760;48.822;9.304;2023-03-31T16:01:48;0.80;;;0.80;;
1533;SDS011;760;48.822;9.304;2023-03-31T16:04:14;0.60;;;0.57;;
1533;SDS011;760;48.822;9.304;2023-03-31T16:06:48;1.00;;;0.90;;
1533;SDS011;760;48.822;9.304;2023-03-31T16:11:56;1.13;;;1.03;;
1533;SDS011;760;48.822;9.304;2023-03-31T16:14:36;1.00;;;0.80;;
1533;SDS011;760;48.822;9.304;2023-03-31T16:17:08;0.77;;;0.70;;
1533;SDS011;760;48.822;9.304;2023-03-31T16:19:42;0.50;;;0.40;;
1533;SDS011;760;48.822;9.304;2023-03-31T16:22:15;1.67;;;0.57;;
1533;SDS011;760;48.822;9.304;2023-03-31T16:24:46;2.10;;;0.93;;
1533;SDS011;760;48.822;9.304;2023-03-31T16:27:13;0.60;;;0.40;;
1533;SDS011;760;48.822;9.304;2023-03-31T16:29:39;0.60;;;0.60;;
1533;SDS011;760;48.822;9.304;2023-03-31T16:32:14;1.60;;;0.73;;
1533;SDS011;760;48.822;9.304;2023-03-31T16:37:24;0.60;;;0.60;;
1533;SDS011;760;48.822;9.304;2023-03-31T16:39:51;0.53;;;0.50;;
1533;SDS011;760;48.822;9.304;2023-03-31T16:42:17;0.50;;;0.50;;
1533;SDS011;760;48.822;9.304;2023-03-31T16:44:43;2.03;;;0.70;;
1533;SDS011;760;48.822;9.304;2023-03-31T16:47:10;1.37;;;0.50;;
1533;SDS011;760;48.822;9.304;2023-03-31T16:49:36;0.60;;;0.60;;
1533;SDS011;760;48.822;9.304;2023-03-31T16:52:02;1.23;;;0.60;;
1533;SDS011;760;48.822;9.304;2023-03-31T16:54:29;0.50;;;0.50;;
1533;SDS011;760;48.822;9.304;2023-03-31T16:56:55;0.80;;;0.50;;
1533;SDS011;760;48.822;9.304;2023-03-31T16:59:21;0.40;;;0.40;;
1533;SDS011;760;48.822;9.304;2023-03-31T17:01:47;0.70;;;0.70;;
1533;SDS011;760;48.822;9.304;2023-03-31T17:04:13;0.30;;;0.30;;
1533;SDS011;760;48.822;9.304;2023-03-31T17:06:38;0.80;;;0.80;;
1533;SDS011;760;48.822;9.304;2023-03-31T17:09:04;0.50;;;0.50;;
1533;SDS011;760;48.822;9.304;2023-03-31T17:11:30;0.60;;;0.60;;
1533;SDS011;760;48.822;9.304;2023-03-31T17:13:56;0.40;;;0.40;;
1533;SDS011;760;48.822;9.304;2023-03-31T17:16:23;0.60;;;0.50;;
1533;SDS011;760;48.822;9.304;2023-03-31T17:18:50;0.50;;;0.40;;
1533;SDS011;760;48.822;9.304;2023-03-31T17:21:17;0.32;;;0.32;;
1533;SDS011;760;48.822;9.304;2023-03-31T17:23:43;1.58;;;0.50;;
1533;SDS011;760;48.822;9.304;2023-03-31T17:26:10;0.40;;;0.40;;
1533;SDS011;760;48.822;9.304;2023-03-31T17:28:39;1.47;;;0.70;;
1533;SDS011;760;48.822;9.304;2023-03-31T17:31:18;0.90;;;0.80;;
1533;SDS011;760;48.822;9.304;2023-03-31T17:33:45;0.68;;;0.68;;
1533;SDS011;760;48.822;9.304;2023-03-31T17:36:11;1.10;;;1.00;;
1533;SDS011;760;48.822;9.304;2023-03-31T17:38:37;0.45;;;0.45;;
1533;SDS011;760;48.822;9.304;2023-03-31T17:41:04;1.15;;;0.57;;
1533;SDS011;760;48.822;9.304;2023-03-31T17:43:31;1.57;;;0.57;;
1533;SDS011;760;48.822;9.304;2023-03-31T17:46:00;0.70;;;0.53;;
1533;SDS011;760;48.822;9.304;2023-03-31T17:48:31;1.60;;;0.80;;
1533;SDS011;760;48.822;9.304;2023-03-31T17:51:08;0.85;;;0.50;;
1533;SDS011;760;48.822;9.304;2023-03-31T17:53:37;2.90;;;1.38;;
1533;SDS011;760;48.822;9.304;2023-03-31T17:56:03;0.80;;;0.50;;
1533;SDS011;760;48.822;9.304;2023-03-31T17:58:30;0.70;;;0.60;;
1533;SDS011;760;48.822;9.304;2023-03-31T18:00:57;0.80;;;0.80;;
1533;SDS011;760;48.822;9.304;2023-03-31T18:03:26;0.50;;;0.50;;
1533;SDS011;760;48.822;9.304;2023-03-31T18:05:52;0.65;;;0.60;;
1533;SDS011;760;48.822;9.304;2023-03-31T18:08:17;3.40;;;0.53;;
1533;SDS011;760;48.822;9.304;2023-03-31T18:10:43;0.50;;;0.50;;
1533;SDS011;760;48.822;9.304;2023-03-31T18:13:09;0.88;;;0.70;;
1533;SDS011;760;48.822;9.304;2023-03-31T18:15:35;1.60;;;0.87;;
1533;SDS011;760;48.822;9.304;2023-03-31T18:18:01;0.90;;;0.75;;
1533;SDS011;760;48.822;9.304;2023-03-31T18:20:28;0.73;;;0.70;;
1533;SDS011;760;48.822;9.304;2023-03-31T18:22:53;1.23;;;0.90;;
1533;SDS011;760;48.822;9.304;2023-03-31T18:25:19;1.70;;;1.53;;
1533;SDS011;760;48.822;9.304;2023-03-31T18:27:45;0.50;;;0.50;;
1533;SDS011;760;48.822;9.304;2023-03-31T18:30:13;0.57;;;0.57;;
1533;SDS011;760;48.822;9.304;2023-03-31T18:32:38;0.63;;;0.63;;
1533;SDS011;760;48.822;9.304;2023-03-31T18:35:04;0.77;;;0.77;;
1533;SDS011;760;48.822;9.304;2023-03-31T18:37:31;0.73;;;0.73;;
1533;SDS011;760;48.822;9.304;2023-03-31T18:39:57;1.23;;;1.10;;
1533;SDS011;760;48.822;9.304;2023-03-31T18:42:23;2.33;;;0.83;;
1533;SDS011;760;48.822;9.304;2023-03-31T18:44:52;1.85;;;1.08;;
1533;SDS011;760;48.822;9.304;2023-03-31T18:47:18;2.70;;;0.70;;
1533;SDS011;760;48.822;9.304;2023-03-31T18:49:45;0.80;;;0.80;;
1533;SDS011;760;48.822;9.304;2023-03-31T18:52:12;0.68;;;0.68;;
1533;SDS011;760;48.822;9.304;2023-03-31T18:54:38;0.70;;;0.70;;
1533;SDS011;760;48.822;9.304;2023-03-31T18:57:03;1.43;;;0.50;;
1533;SDS011;760;48.822;9.304;2023-03-31T18:59:30;0.77;;;0.77;;
1533;SDS011;760;48.822;9.304;2023-03-31T19:01:55;1.10;;;0.63;;
1533;SDS011;760;48.822;9.304;2023-03-31T19:04:21;0.57;;;0.57;;
1533;SDS011;760;48.822;9.304;2023-03-31T19:06:47;0.53;;;0.40;;
1533;SDS011;760;48.822;9.304;2023-03-31T19:09:12;3.03;;;0.80;;
1533;SDS011;760;48.822;9.304;2023-03-31T19:11:38;0.70;;;0.70;;
1533;SDS011;760;48.822;9.304;2023-03-31T19:14:03;1.33;;;0.73;;
1533;SDS011;760;48.822;9.304;2023-03-31T19:16:32;0.50;;;0.50;;
1533;SDS011;760;48.822;9.304;2023-03-31T19:19:05;0.85;;;0.85;;
1533;SDS011;760;48.822;9.304;2023-03-31T19:21:31;1.30;;;0.90;;
1533;SDS011;760;48.822;9.304;2023-03-31T19:24:00;3.95;;;0.95;;
1533;SDS011;760;48.822;9.304;2023-03-31T19:26:26;1.67;;;1.08;;
1533;SDS011;760;48.822;9.304;2023-03-31T19:28:52;1.30;;;0.83;;
1533;SDS011;760;48.822;9.304;2023-03-31T19:31:18;2.95;;;1.20;;
1533;SDS011;760;48.822;9.304;2023-03-31T19:33:44;0.70;;;0.70;;
1533;SDS011;760;48.822;9.304;2023-03-31T19:36:10;1.83;;;1.27;;
1533;SDS011;760;48.822;9.304;2023-03-31T19:38:36;0.83;;;0.70;;
1533;SDS011;760;48.822;9.304;2023-03-31T19:41:02;1.27;;;0.77;;
1533;SDS011;760;48.822;9.304;2023-03-31T19:43:29;0.50;;;0.50;;
1533;SDS011;760;48.822;9.304;2023-03-31T19:45:54;1.17;;;0.93;;
1533;SDS011;760;48.822;9.304;2023-03-31T19:48:21;0.70;;;0.70;;
1533;SDS011;760;48.822;9.304;2023-03-31T19:50:50;0.60;;;0.60;;
1533;SDS011;760;48.822;9.304;2023-03-31T19:53:18;3.35;;;0.80;;
1533;SDS011;760;48.822;9.304;2023-03-31T19:55:54;2.05;;;0.70;;
1533;SDS011;760;48.822;9.304;2023-03-31T19:58:20;1.48;;;0.77;;
1533;SDS011;760;48.822;9.304;2023-03-31T20:00:45;0.60;;;0.60;;
1533;SDS011;760;48.822;9.304;2023-03-31T20:03:11;1.80;;;0.73;;
1533;SDS011;760;48.822;9.304;2023-03-31T20:05:36;0.97;;;0.73;;
1533;SDS011;760;48.822;9.304;2023-03-31T20:08:02;2.67;;;1.40;;
1533;SDS011;760;48.822;9.304;2023-03-31T20:10:28;1.50;;;1.20;;
1533;SDS011;760;48.822;9.304;2023-03-31T20:12:53;1.00;;;0.90;;
1533;SDS011;760;48.822;9.304;2023-03-31T20:15:21;0.95;;;0.60;;
1533;SDS011;760;48.822;9.304;2023-03-31T20:17:47;0.88;;;0.88;;
1533;SDS011;760;48.822;9.304;2023-03-31T20:20:13;6.37;;;1.87;;
1533;SDS011;760;48.822;9.304;2023-03-31T20:22:38;1.30;;;1.10;;
1533;SDS011;760;48.822;9.304;2023-03-31T20:25:05;0.80;;;0.80;;
1533;SDS011;760;48.822;9.304;2023-03-31T20:27:31;2.30;;;1.33;;
1533;SDS011;760;48.822;9.304;2023-03-31T20:29:57;0.77;;;0.77;;
1533;SDS011;760;48.822;9.304;2023-03-31T20:32:22;0.60;;;0.50;;
1533;SDS011;760;48.822;9.304;2023-03-31T20:34:48;3.27;;;0.87;;
1533;SDS011;760;48.822;9.304;2023-03-31T20:37:13;1.17;;;1.17;;
1533;SDS011;760;48.822;9.304;2023-03-31T20:39:39;2.70;;;1.33;;
1533;SDS011;760;48.822;9.304;2023-03-31T20:42:05;1.37;;;0.70;;
1533;SDS011;760;48.822;9.304;2023-03-31T20:44:30;1.27;;;1.20;;
1533;SDS011;760;48.822;9.304;2023-03-31T20:46:56;4.30;;;0.70;;
1533;SDS011;760;48.822;9.304;2023-03-31T20:49:24;0.75;;;0.60;;
1533;SDS011;760;48.822;9.304;2023-03-31T20:51:50;0.70;;;0.70;;
1533;SDS011;760;48.822;9.304;2023-03-31T20:54:15;2.43;;;1.43;;
1533;SDS011;760;48.822;9.304;2023-03-31T20:56:41;0.93;;;0.88;;
1533;SDS011;760;48.822;9.304;2023-03-31T20:59:11;1.27;;;0.85;;
1533;SDS011;760;48.822;9.304;2023-03-31T21:01:38;1.48;;;0.88;;
1533;SDS011;760;48.822;9.304;2023-03-31T21:04:07;2.03;;;1.35;;
1533;SDS011;760;48.822;9.304;2023-03-31T21:06:35;1.02;;;1.02;;
1533;SDS011;760;48.822;9.304;2023-03-31T21:09:03;2.13;;;1.05;;
1533;SDS011;760;48.822;9.304;2023-03-31T21:11:31;2.03;;;1.38;;
1533;SDS011;760;48.822;9.304;2023-03-31T21:13:58;5.00;;;0.88;;
1533;SDS011;760;48.822;9.304;2023-03-31T21:16:24;3.90;;;0.75;;
1533;SDS011;760;48.822;9.304;2023-03-31T21:18:49;0.50;;;0.50;;
1533;SDS011;760;48.822;9.304;2023-03-31T21:21:15;0.50;;;0.50;;
1533;SDS011;760;48.822;9.304;2023-03-31T21:23:43;2.35;;;2.15;;
1533;SDS011;760;48.822;9.304;2023-03-31T21:26:10;1.98;;;0.75;;
1533;SDS011;760;48.822;9.304;2023-03-31T21:28:38;0.55;;;0.55;;
1533;SDS011;760;48.822;9.304;2023-03-31T21:31:05;0.67;;;0.67;;
1533;SDS011;760;48.822;9.304;2023-03-31T21:33:33;3.13;;;0.82;;
1533;SDS011;760;48.822;9.304;2023-03-31T21:36:02;2.05;;;0.93;;
1533;SDS011;760;48.822;9.304;2023-03-31T21:38:28;0.75;;;0.75;;
1533;SDS011;760;48.822;9.304;2023-03-31T21:40:54;0.70;;;0.70;;
1533;SDS011;760;48.822;9.304;2023-03-31T21:43:23;0.80;;;0.53;;
1533;SDS011;760;48.822;9.304;2023-03-31T21:45:49;0.77;;;0.77;;
1533;SDS011;760;48.822;9.304;2023-03-31T21:48:18;0.68;;;0.60;;
1533;SDS011;760;48.822;9.304;2023-03-31T21:50:49;4.45;;;0.80;;
1533;SDS011;760;48.822;9.304;2023-03-31T21:53:16;6.18;;;1.70;;
1533;SDS011;760;48.822;9.304;2023-03-31T21:55:42;0.85;;;0.85;;
1533;SDS011;760;48.822;9.304;2023-03-31T21:58:08;0.85;;;0.55;;
1533;SDS011;760;48.822;9.304;2023-03-31T22:00:34;0.73;;;0.73;;
1533;SDS011;760;48.822;9.304;2023-03-31T22:03:00;2.30;;;0.73;;
1533;SDS011;760;48.822;9.304;2023-03-31T22:05:26;3.72;;;0.80;;
1533;SDS011;760;48.822;9.304;2023-03-31T22:07:52;0.53;;;0.47;;
1533;SDS011;760;48.822;9.304;2023-03-31T22:10:17;0.50;;;0.50;;
1533;SDS011;760;48.822;9.304;2023-03-31T22:12:43;0.73;;;0.70;;
1533;SDS011;760;48.822;9.304;2023-03-31T22:15:08;1.37;;;0.47;;
1533;SDS011;760;48.822;9.304;2023-03-31T22:17:35;1.08;;;0.70;;
1533;SDS011;760;48.822;9.304;2023-03-31T22:20:01;0.70;;;0.53;;
1533;SDS011;760;48.822;9.304;2023-03-31T22:22:28;0.50;;;0.50;;
1533;SDS011;760;48.822;9.304;2023-03-31T22:24:54;0.50;;;0.50;;
1533;SDS011;760;48.822;9.304;2023-03-31T22:27:20;0.60;;;0.60;;
1533;SDS011;760;48.822;9.304;2023-03-31T22:29:45;0.50;;;0.50;;
1533;SDS011;760;48.822;9.304;2023-03-31T22:32:11;0.50;;;0.50;;
1533;SDS011;760;48.822;9.304;2023-03-31T22:34:37;0.67;;;0.67;;
1533;SDS011;760;48.822;9.304;2023-03-31T22:37:02;0.53;;;0.53;;
1533;SDS011;760;48.822;9.304;2023-03-31T22:39:28;0.40;;;0.40;;
1533;SDS011;760;48.822;9.304;2023-03-31T22:41:54;1.37;;;0.30;;
1533;SDS011;760;48.822;9.304;2023-03-31T22:44:20;0.50;;;0.50;;
1533;SDS011;760;48.822;9.304;2023-03-31T22:46:45;0.60;;;0.50;;
1533;SDS011;760;48.822;9.304;2023-03-31T22:49:11;1.60;;;0.60;;
1533;SDS011;760;48.822;9.304;2023-03-31T22:51:38;1.02;;;0.77;;
1533;SDS011;760;48.822;9.304;2023-03-31T22:54:05;0.40;;;0.30;;
1533;SDS011;760;48.822;9.304;2023-03-31T22:56:32;0.60;;;0.40;;
1533;SDS011;760;48.822;9.304;2023-03-31T22:58:57;0.70;;;0.60;;
